Time;durP1;ratioP1;P1;durP2;ratioP2;P2;SDS_P1;SDS_P2;PMS_P1;PMS_P2;Temp;Humidity;BMP_temperature;BMP_pressure;BME280_temperature;BME280_humidity;BME280_pressure;Samples;Min_cycle;Max_cycle;Signal;HPM_P1;HPM_P2
2022/01/06 00:01:37;;;;;;;12.20;6.05;;;6.30;99.90;;;5.85;94.41;101813.03;4156276;28;20022;-68
2022/01/06 00:03:38;;;;;;;10.45;5.70;;;6.10;99.90;;;5.52;96.42;101809.03;4152084;28;20056;-68
2022/01/06 00:05:39;;;;;;;13.02;6.15;;;6.20;99.90;;;5.53;97.57;101804.63;4162192;28;20122;-68
2022/01/06 00:07:40;;;;;;;13.50;7.05;;;6.10;99.90;;;5.52;98.71;101803.81;4153124;28;20030;-68
2022/01/06 00:09:41;;;;;;;16.42;7.82;;;6.10;99.90;;;5.41;98.66;101806.22;4161637;28;20025;-68
2022/01/06 00:11:43;;;;;;;12.27;7.18;;;6.00;99.90;;;5.30;99.70;101797.38;4167012;28;20125;-68
2022/01/06 00:24:38;;;;;;;17.73;9.98;;;5.80;99.90;;;5.33;98.85;101784.97;4165203;28;20040;-68
2022/01/06 00:26:39;;;;;;;15.48;9.88;;;5.80;99.90;;;5.33;98.07;101795.44;4160971;28;20501;-68
2022/01/06 00:28:40;;;;;;;10.77;5.97;;;5.70;99.90;;;5.40;95.59;101799.34;4149519;28;20022;-68
2022/01/06 00:30:41;;;;;;;10.73;5.47;;;5.80;99.90;;;5.29;96.93;101799.16;4152603;28;20026;-68
2022/01/06 00:32:42;;;;;;;9.93;5.60;;;5.80;99.90;;;5.23;96.12;101807.38;4154826;28;20033;-68
2022/01/06 00:34:43;;;;;;;10.57;5.53;;;5.70;99.90;;;5.05;97.21;101800.69;4177727;28;20018;-68
2022/01/06 00:36:44;;;;;;;9.32;5.65;;;5.60;99.90;;;4.87;98.28;101804.44;4160217;28;20034;-68
2022/01/06 00:38:45;;;;;;;11.80;6.30;;;5.80;99.90;;;4.91;98.82;101803.31;4180022;28;20033;-68
2022/01/06 00:40:46;;;;;;;11.60;5.90;;;5.40;99.90;;;4.90;100.00;101801.63;4157213;28;20021;-68
2022/01/06 00:42:47;;;;;;;14.25;6.60;;;5.40;99.90;;;4.78;100.00;101800.59;4153948;28;20413;-68
2022/01/06 00:44:47;;;;;;;10.80;7.00;;;5.30;99.90;;;4.69;100.00;101806.38;4153830;28;20108;-68
2022/01/06 00:46:49;;;;;;;10.80;6.07;;;5.30;99.90;;;4.64;100.00;101797.16;4153520;28;20034;-68
2022/01/06 00:48:49;;;;;;;12.60;6.13;;;5.20;99.90;;;4.65;100.00;101804.91;4155601;28;20036;-68
2022/01/06 00:50:50;;;;;;;11.43;6.35;;;5.10;99.90;;;4.64;100.00;101797.16;4167473;28;20034;-68
2022/01/06 00:52:51;;;;;;;10.75;6.68;;;5.10;99.90;;;4.58;100.00;101797.50;4147080;28;20089;-68
2022/01/06 00:54:52;;;;;;;13.63;8.32;;;5.10;99.90;;;4.65;100.00;101804.91;4160677;28;20079;-68
2022/01/06 00:56:53;;;;;;;19.23;9.75;;;5.10;99.90;;;4.77;100.00;101804.16;4161969;28;20029;-68
2022/01/06 00:58:54;;;;;;;23.83;12.77;;;5.00;99.90;;;4.84;100.00;101807.22;4159880;28;20138;-68
2022/01/06 01:00:55;;;;;;;21.02;13.43;;;5.20;99.90;;;4.57;100.00;101811.53;4176263;28;20517;-68
2022/01/06 01:02:56;;;;;;;16.58;10.55;;;5.10;99.90;;;4.19;100.00;101804.16;4160962;28;20112;-68
2022/01/06 01:04:57;;;;;;;14.13;7.53;;;5.00;99.90;;;4.41;100.00;101801.97;4168489;28;20052;-68
2022/01/06 01:06:58;;;;;;;13.57;8.35;;;4.90;99.90;;;4.44;100.00;101799.19;4181669;28;20056;-68
2022/01/06 01:08:59;;;;;;;11.50;7.90;;;4.90;99.90;;;4.49;100.00;101804.13;4169818;28;20029;-68
2022/01/06 01:11:00;;;;;;;18.55;9.30;;;5.10;99.90;;;4.54;100.00;101798.66;4160482;28;20149;-68
2022/01/06 01:13:01;;;;;;;19.33;9.02;;;4.90;99.90;;;4.70;100.00;101822.91;4175600;28;20191;-68
2022/01/06 01:15:06;;;;;;;14.40;8.65;;;4.90;99.90;;;4.71;100.00;101824.59;4169944;28;20034;-68
2022/01/06 01:17:13;;;;;;;16.60;9.38;;;4.90;99.90;;;4.60;100.00;101820.00;4169521;28;20033;-69
2022/01/06 01:19:14;;;;;;;19.08;11.35;;;4.90;99.90;;;4.66;100.00;101824.03;4179414;28;20025;-68
2022/01/06 01:21:15;;;;;;;13.52;8.18;;;4.90;99.90;;;4.70;100.00;101812.47;4163051;28;20041;-69
2022/01/06 01:23:18;;;;;;;16.00;9.20;;;4.90;99.90;;;4.57;100.00;101816.75;4152195;28;20048;-68
2022/01/06 01:25:19;;;;;;;11.95;8.50;;;4.90;99.90;;;4.63;100.00;101813.78;4151956;28;20022;-68
2022/01/06 01:27:22;;;;;;;15.60;8.20;;;5.00;99.90;;;4.57;100.00;101812.34;4162864;28;20763;-68
2022/01/06 01:29:23;;;;;;;14.65;9.80;;;5.20;99.90;;;4.54;100.00;101812.53;4154754;28;20049;-68
2022/01/06 01:31:26;;;;;;;11.80;7.80;;;5.00;99.90;;;4.60;100.00;101813.97;4138887;28;20410;-68
2022/01/06 01:33:30;;;;;;;11.73;8.55;;;4.90;99.90;;;4.60;100.00;101811.34;4151968;28;20057;-68
2022/01/06 01:35:32;;;;;;;8.70;6.30;;;5.00;99.90;;;4.59;100.00;101813.13;4162314;28;20551;-68
2022/01/06 01:37:34;;;;;;;10.27;6.35;;;4.90;99.90;;;4.69;100.00;101809.00;4167976;28;20029;-68
2022/01/06 01:39:35;;;;;;;10.55;6.93;;;5.00;99.90;;;4.70;100.00;101815.91;4165142;28;20026;-68
2022/01/06 01:41:36;;;;;;;12.88;9.43;;;5.00;99.90;;;4.69;100.00;101816.03;4158895;28;20048;-68
2022/01/06 01:43:38;;;;;;;13.80;7.28;;;5.00;99.90;;;4.52;100.00;101813.56;4168204;28;20089;-68
2022/01/06 01:45:45;;;;;;;12.43;7.28;;;5.00;99.90;;;4.64;100.00;101820.66;4169358;28;20507;-68
2022/01/06 01:47:47;;;;;;;9.43;7.43;;;5.00;99.90;;;4.75;100.00;101815.66;4166010;28;20059;-69
2022/01/06 01:49:53;;;;;;;9.30;7.60;;;5.10;99.90;;;4.69;100.00;101813.41;4168043;28;20103;-68
2022/01/06 01:51:54;;;;;;;9.45;6.15;;;5.00;99.90;;;4.60;100.00;101816.56;4157529;28;20534;-68
2022/01/06 01:53:55;;;;;;;9.80;6.38;;;5.00;99.90;;;4.69;99.42;101816.84;4166851;28;20408;-68
2022/01/06 01:55:57;;;;;;;8.88;4.40;;;5.00;99.90;;;4.64;98.97;101810.22;4181783;28;20037;-68
2022/01/06 01:57:58;;;;;;;9.98;6.18;;;5.00;99.90;;;4.10;100.00;101812.53;4170974;28;20405;-68
2022/01/06 01:59:59;;;;;;;11.73;6.03;;;4.90;99.90;;;4.07;100.00;101812.69;4152764;28;20389;-68
2022/01/06 02:02:00;;;;;;;10.77;6.97;;;4.80;99.90;;;4.10;100.00;101806.47;4166420;28;20025;-68
2022/01/06 02:04:02;;;;;;;8.48;5.70;;;4.80;99.90;;;4.26;100.00;101815.94;4169129;28;20041;-68
2022/01/06 02:06:03;;;;;;;9.57;6.03;;;4.70;99.90;;;4.32;100.00;101815.59;4160006;28;20061;-68
2022/01/06 02:08:05;;;;;;;5.22;4.70;;;4.60;99.90;;;4.23;100.00;101823.97;4145601;28;20041;-68
2022/01/06 02:10:10;;;;;;;9.52;5.70;;;4.60;99.90;;;3.98;100.00;101821.06;4148141;28;20042;-68
2022/01/06 02:12:31;;;;;;;8.55;5.40;;;4.60;99.90;;;3.80;100.00;101824.72;4139629;28;20078;-68
2022/01/06 02:14:34;;;;;;;7.57;5.03;;;4.50;99.90;;;3.79;100.00;101813.41;4163127;28;20030;-68
2022/01/06 02:16:37;;;;;;;11.07;6.07;;;4.40;99.90;;;3.90;100.00;101811.06;4168593;28;20032;-68
2022/01/06 02:18:38;;;;;;;12.80;5.07;;;4.30;99.90;;;4.03;100.00;101806.00;4163096;28;20026;-68
2022/01/06 02:20:39;;;;;;;9.85;4.53;;;4.20;99.90;;;3.87;100.00;101816.47;4158807;28;20025;-68
2022/01/06 02:22:40;;;;;;;9.00;5.95;;;4.30;99.90;;;3.83;100.00;101806.25;4156419;28;20561;-68
2022/01/06 02:24:41;;;;;;;8.45;5.63;;;4.30;99.90;;;3.73;100.00;101816.38;4165659;28;20037;-68
2022/01/06 02:26:42;;;;;;;9.32;6.07;;;4.20;99.90;;;3.75;100.00;101806.72;4162731;28;20037;-68
2022/01/06 02:28:43;;;;;;;8.20;4.90;;;4.10;99.90;;;3.97;100.00;101805.50;4159212;28;20135;-68
2022/01/06 02:30:50;;;;;;;9.23;6.00;;;4.30;99.90;;;3.93;100.00;101807.44;4157156;28;20036;-68
2022/01/06 02:32:52;;;;;;;10.43;6.20;;;4.40;99.90;;;3.85;100.00;101801.81;4168485;28;20024;-68
2022/01/06 02:34:52;;;;;;;9.95;5.88;;;4.20;99.90;;;3.85;100.00;101801.81;4172254;28;20504;-68
2022/01/06 02:36:53;;;;;;;8.68;6.32;;;4.20;99.90;;;3.86;100.00;101808.72;4160793;28;20040;-68
2022/01/06 02:38:54;;;;;;;11.55;6.03;;;4.20;99.90;;;3.86;100.00;101813.91;4168776;28;20060;-68
2022/01/06 02:40:55;;;;;;;9.38;5.40;;;4.20;99.90;;;3.87;100.00;101806.03;4151726;28;20509;-68
2022/01/06 02:42:58;;;;;;;9.88;4.95;;;4.30;99.90;;;4.03;100.00;101805.16;4156446;28;20034;-68
2022/01/06 02:44:59;;;;;;;7.05;5.25;;;4.30;99.90;;;4.20;100.00;101818.06;4167187;28;20085;-68
2022/01/06 02:47:00;;;;;;;7.60;5.30;;;4.30;99.90;;;4.15;98.48;101814.88;4155821;28;20030;-70
2022/01/06 02:49:01;;;;;;;9.48;5.60;;;4.50;99.90;;;3.95;99.60;101828.22;4151256;28;20506;-69
2022/01/06 02:51:02;;;;;;;9.30;5.63;;;4.40;99.90;;;3.42;100.00;101819.03;4177422;28;20520;-69
2022/01/06 02:53:05;;;;;;;6.82;4.97;;;4.30;99.90;;;3.59;100.00;101811.09;4149956;28;20041;-69
2022/01/06 02:55:10;;;;;;;8.98;5.60;;;4.30;99.90;;;3.79;100.00;101818.66;4168285;28;20760;-68
2022/01/06 02:57:11;;;;;;;13.30;6.53;;;4.30;99.90;;;3.92;100.00;101803.13;4181445;28;20025;-68
2022/01/06 02:59:12;;;;;;;14.52;7.03;;;3.70;99.90;;;3.93;100.00;101799.59;4165637;28;20065;-68
2022/01/06 03:01:13;;;;;;;9.82;5.93;;;4.30;99.90;;;3.92;100.00;101806.59;4159583;28;20026;-68
2022/01/06 03:03:14;;;;;;;9.98;5.68;;;4.40;99.90;;;3.98;100.00;101802.78;4162663;28;20037;-68
2022/01/06 03:05:17;;;;;;;15.65;6.75;;;4.40;99.90;;;3.98;100.00;101808.00;4154274;28;20022;-68
2022/01/06 03:07:18;;;;;;;15.10;6.43;;;4.40;99.90;;;4.02;100.00;101798.25;4174149;28;20077;-68
2022/01/06 03:09:26;;;;;;;9.07;5.60;;;4.40;99.90;;;4.01;100.00;101796.53;4159618;28;20100;-68
2022/01/06 03:11:28;;;;;;;7.68;5.28;;;4.60;99.90;;;3.96;100.00;101799.44;4167938;28;20531;-68
2022/01/06 03:13:29;;;;;;;8.38;5.32;;;4.60;99.90;;;4.07;100.00;101801.41;4151214;28;20049;-68
2022/01/06 03:15:30;;;;;;;7.40;5.22;;;4.60;99.90;;;4.04;100.00;101796.38;4150391;28;20029;-68
2022/01/06 03:17:31;;;;;;;10.52;6.63;;;4.50;99.90;;;4.16;100.00;101804.34;4159216;28;20021;-68
2022/01/06 03:19:32;;;;;;;15.13;6.93;;;4.60;99.90;;;4.20;100.00;101810.22;4179945;28;20033;-68
2022/01/06 03:21:33;;;;;;;8.18;5.03;;;4.60;99.90;;;4.40;97.13;101823.81;4154337;28;20033;-68
2022/01/06 03:23:34;;;;;;;8.35;4.65;;;4.80;99.90;;;4.23;98.78;101823.09;4153914;28;20393;-68
2022/01/06 03:25:35;;;;;;;7.60;4.40;;;4.70;99.90;;;4.16;100.00;101822.63;4151353;28;20394;-68
2022/01/06 03:27:36;;;;;;;10.20;5.95;;;4.70;99.90;;;4.03;100.00;101824.28;4163496;28;20037;-68
2022/01/06 03:29:37;;;;;;;9.05;5.00;;;4.90;99.90;;;4.07;100.00;101828.38;4167722;28;20099;-68
2022/01/06 03:31:38;;;;;;;7.22;5.18;;;4.70;99.90;;;4.03;100.00;101824.28;4167693;28;20033;-68
2022/01/06 03:33:39;;;;;;;5.53;4.68;;;4.70;99.90;;;3.95;100.00;101821.22;4157586;28;20061;-68
2022/01/06 03:35:40;;;;;;;12.93;4.97;;;4.60;99.90;;;4.00;100.00;101813.16;4149713;28;20044;-68
2022/01/06 03:37:41;;;;;;;12.35;6.20;;;4.60;99.90;;;4.06;100.00;101818.84;4165302;28;20133;-68
2022/01/06 03:39:44;;;;;;;8.57;4.82;;;4.60;99.90;;;3.99;100.00;101814.91;4150116;28;20065;-68
2022/01/06 03:41:45;;;;;;;6.32;4.93;;;4.70;99.90;;;4.04;100.00;101812.88;4149995;28;20121;-68
2022/01/06 03:43:46;;;;;;;12.40;7.00;;;4.60;99.90;;;4.11;100.00;101810.75;4151320;28;20022;-68
2022/01/06 03:45:47;;;;;;;9.50;6.57;;;4.60;99.90;;;4.14;100.00;101813.19;4151171;28;20021;-68
2022/01/06 03:47:48;;;;;;;12.27;6.72;;;4.70;99.90;;;4.14;100.00;101815.81;4162631;28;20033;-68
2022/01/06 03:49:49;;;;;;;12.13;8.65;;;4.70;99.90;;;4.04;100.00;101810.25;4157629;28;20033;-68
2022/01/06 03:51:50;;;;;;;9.30;6.35;;;4.70;99.90;;;4.05;100.00;101808.50;4167508;28;20033;-68
2022/01/06 03:53:51;;;;;;;10.70;6.38;;;4.60;99.90;;;4.11;100.00;101808.16;4180729;28;20021;-68
2022/01/06 03:55:52;;;;;;;8.57;6.78;;;4.60;99.90;;;4.04;100.00;101807.66;4168150;28;20056;-68
2022/01/06 03:57:53;;;;;;;7.03;5.82;;;4.70;99.90;;;4.10;100.00;101806.47;4166193;28;20033;-68
2022/01/06 03:59:54;;;;;;;8.10;5.00;;;4.70;99.90;;;4.07;100.00;101797.03;4166258;28;20033;-68
2022/01/06 04:01:54;;;;;;;6.35;5.22;;;4.70;99.90;;;4.01;100.00;101801.75;4167432;28;20080;-68
2022/01/06 04:03:55;;;;;;;7.05;5.00;;;4.60;99.90;;;4.11;100.00;101810.75;4167164;28;20112;-68
2022/01/06 04:05:56;;;;;;;10.57;6.57;;;4.80;99.90;;;4.15;100.00;101826.16;4159308;28;20118;-68
2022/01/06 04:07:57;;;;;;;10.75;5.32;;;4.60;99.90;;;4.21;100.00;101804.91;4143003;28;20106;-68
2022/01/06 04:09:59;;;;;;;6.90;4.68;;;4.60;99.90;;;4.19;99.13;101804.16;4163908;28;20029;-68
2022/01/06 04:12:00;;;;;;;6.20;4.90;;;4.90;99.90;;;4.09;99.49;101803.00;4149657;28;20381;-68
2022/01/06 04:14:01;;;;;;;6.85;5.00;;;4.60;99.90;;;3.94;100.00;101801.31;4166209;28;20040;-68
2022/01/06 04:16:07;;;;;;;7.63;4.63;;;4.30;99.90;;;3.83;100.00;101798.44;4165923;28;20079;-68
2022/01/06 04:18:07;;;;;;;8.35;5.40;;;4.40;99.90;;;3.77;100.00;101798.78;4166029;28;20033;-68
2022/01/06 04:20:11;;;;;;;10.13;5.75;;;4.40;99.90;;;3.72;100.00;101790.38;4162329;28;20033;-68
2022/01/06 04:22:12;;;;;;;11.35;4.93;;;4.30;99.90;;;3.69;100.00;101790.56;4152230;28;20397;-68
2022/01/06 04:24:12;;;;;;;6.68;5.03;;;4.30;99.90;;;3.55;100.00;101795.72;4171699;28;20033;-68
2022/01/06 04:26:17;;;;;;;8.05;5.20;;;4.20;99.90;;;3.45;100.00;101799.75;4155145;28;20037;-68
2022/01/06 04:28:18;;;;;;;11.07;4.63;;;4.50;99.90;;;3.55;100.00;101793.09;4153938;28;20028;-68
2022/01/06 04:30:19;;;;;;;8.30;5.97;;;4.00;99.90;;;3.62;100.00;101789.22;4158599;28;20061;-68
2022/01/06 04:32:20;;;;;;;11.02;5.88;;;4.10;99.90;;;3.82;100.00;101796.78;4161361;28;20069;-68
2022/01/06 04:34:21;;;;;;;8.73;5.35;;;4.00;99.90;;;3.60;100.00;101784.09;4167100;28;20481;-68
2022/01/06 04:36:22;;;;;;;8.48;5.85;;;4.00;99.90;;;3.56;100.00;101784.34;4149080;28;20159;-68
2022/01/06 04:38:23;;;;;;;7.20;5.32;;;4.00;99.90;;;3.59;100.00;101785.00;4160186;28;20109;-68
2022/01/06 04:40:24;;;;;;;9.93;6.18;;;3.90;99.90;;;3.47;100.00;101777.03;4161078;28;20021;-68
2022/01/06 04:42:25;;;;;;;7.18;5.70;;;4.00;99.90;;;3.29;100.00;101786.69;4178721;28;20044;-68
2022/01/06 04:44:26;;;;;;;8.57;5.13;;;3.80;99.90;;;3.26;100.00;101789.47;4149605;28;20026;-68
2022/01/06 04:46:27;;;;;;;9.45;6.00;;;3.70;99.90;;;3.10;100.00;101776.47;4150500;28;20034;-68
2022/01/06 04:48:29;;;;;;;7.85;5.13;;;3.60;99.90;;;3.07;100.00;101781.84;4150758;28;20061;-68
2022/01/06 04:50:29;;;;;;;5.70;4.93;;;3.60;99.90;;;3.06;100.00;101779.28;4149258;28;20029;-68
2022/01/06 04:52:30;;;;;;;7.43;5.63;;;3.50;99.90;;;3.02;100.00;101773.41;4150617;28;20493;-68
2022/01/06 04:54:32;;;;;;;8.50;5.15;;;3.50;99.90;;;3.15;100.00;101779.66;4153122;28;20045;-68
2022/01/06 04:56:36;;;;;;;9.57;5.13;;;4.10;99.90;;;3.15;100.00;101774.44;4163997;28;20057;-68
2022/01/06 04:58:37;;;;;;;10.32;5.70;;;2.10;99.90;;;3.01;100.00;101771.75;4154028;28;20539;-68
2022/01/06 05:00:38;;;;;;;5.28;4.70;;;3.40;99.90;;;2.94;100.00;101777.34;4150597;28;20425;-68
2022/01/06 05:02:39;;;;;;;6.30;4.70;;;3.30;99.90;;;2.90;100.00;101776.66;4133056;28;20034;-68
2022/01/06 05:04:40;;;;;;;6.72;5.22;;;3.30;99.90;;;2.79;100.00;101774.66;4159864;28;20029;-68
2022/01/06 05:06:41;;;;;;;9.50;6.38;;;3.30;99.90;;;2.83;100.00;101769.28;4166523;28;20456;-68
2022/01/06 05:08:41;;;;;;;6.25;4.78;;;3.20;99.90;;;2.85;100.00;101765.66;4166856;28;20404;-68
2022/01/06 05:10:42;;;;;;;6.00;5.03;;;3.20;99.90;;;2.68;100.00;101776.13;4159629;28;20030;-68
2022/01/06 05:12:45;;;;;;;7.30;4.72;;;3.10;99.90;;;2.66;100.00;101770.13;4158678;28;20040;-68
2022/01/06 05:14:46;;;;;;;7.10;4.63;;;3.20;99.90;;;2.76;100.00;101777.41;4165707;28;20025;-68
2022/01/06 05:16:47;;;;;;;9.05;5.38;;;3.00;99.90;;;2.72;100.00;101780.25;4178550;28;20026;-68
2022/01/06 05:18:48;;;;;;;8.25;5.13;;;3.10;99.90;;;2.52;100.00;101776.09;4158493;28;20033;-68
2022/01/06 05:20:49;;;;;;;9.20;4.93;;;3.00;99.90;;;2.48;100.00;101786.75;4161377;28;20484;-68
2022/01/06 05:22:51;;;;;;;9.73;5.22;;;3.00;99.90;;;2.51;100.00;101781.38;4155819;28;20029;-68
2022/01/06 05:24:53;;;;;;;7.05;4.47;;;3.00;99.90;;;2.40;100.00;101789.72;4153225;28;20118;-68
2022/01/06 05:26:56;;;;;;;6.97;5.72;;;2.90;99.90;;;2.38;100.00;101798.53;4153046;28;20022;-68
2022/01/06 05:28:57;;;;;;;6.32;4.47;;;2.80;99.90;;;2.50;100.00;101800.53;4152074;28;20025;-68
2022/01/06 05:30:58;;;;;;;6.00;4.97;;;2.90;99.90;;;2.54;100.00;101802.06;4153270;28;20037;-68
2022/01/06 05:32:58;;;;;;;10.43;5.10;;;2.90;99.90;;;2.47;100.00;101805.88;4168037;28;20541;-68
2022/01/06 05:35:00;;;;;;;6.40;4.00;;;2.90;99.90;;;2.39;100.00;101800.25;4167999;28;20029;-68
2022/01/06 05:37:00;;;;;;;9.43;5.25;;;2.70;99.90;;;2.27;100.00;101808.66;4167891;28;20033;-68
2022/01/06 05:39:02;;;;;;;6.55;4.78;;;2.70;99.90;;;2.35;100.00;101812.56;4169524;28;20495;-68
2022/01/06 05:41:03;;;;;;;5.90;4.20;;;2.70;99.90;;;2.36;100.00;101818.63;4152402;28;20018;-68
2022/01/06 05:43:04;;;;;;;13.80;5.03;;;1.60;99.90;;;2.27;100.00;101811.28;4163254;28;20107;-68
2022/01/06 05:45:06;;;;;;;7.32;4.82;;;2.60;99.90;;;2.17;100.00;101816.09;4166566;28;20071;-68
2022/01/06 05:47:08;;;;;;;7.22;4.80;;;3.10;99.90;;;2.24;100.00;101820.06;4163996;28;20408;-68
2022/01/06 05:49:08;;;;;;;10.00;6.25;;;2.60;99.90;;;2.20;100.00;101816.78;4151553;28;20556;-68
2022/01/06 05:51:09;;;;;;;8.65;4.97;;;2.60;99.90;;;2.16;100.00;101815.25;4167726;28;20128;-68
2022/01/06 05:53:10;;;;;;;7.75;5.68;;;2.50;99.90;;;2.12;100.00;101820.69;4175801;28;20037;-68
2022/01/06 05:55:12;;;;;;;9.48;5.15;;;2.60;99.90;;;2.26;100.00;101817.38;4177095;28;20412;-68
2022/01/06 05:57:15;;;;;;;12.60;5.25;;;2.60;99.90;;;2.24;100.00;101815.69;4169545;28;20049;-68
2022/01/06 05:59:16;;;;;;;8.68;5.07;;;2.50;99.90;;;2.05;100.00;101811.50;4166049;28;20037;-68
2022/01/06 06:01:17;;;;;;;8.98;5.63;;;2.60;99.90;;;1.98;100.00;101810.09;4169045;28;20443;-68
2022/01/06 06:03:18;;;;;;;7.43;5.28;;;3.70;99.90;;;1.93;100.00;101815.53;4156621;28;20026;-68
2022/01/06 06:05:19;;;;;;;11.40;5.82;;;2.40;99.90;;;1.98;100.00;101816.16;4165718;28;20071;-68
2022/01/06 06:07:20;;;;;;;9.80;6.28;;;2.40;99.90;;;2.06;100.00;101815.78;4173282;28;20049;-68
2022/01/06 06:09:22;;;;;;;7.63;5.60;;;2.50;99.90;;;2.00;100.00;101811.69;4168793;28;20065;-68
2022/01/06 06:11:24;;;;;;;7.00;5.15;;;2.40;99.90;;;1.92;100.00;101821.66;4152632;28;20041;-68
2022/01/06 06:13:25;;;;;;;6.78;5.18;;;2.40;99.90;;;1.85;100.00;101820.25;4151144;28;20127;-68
2022/01/06 06:15:26;;;;;;;6.50;5.60;;;2.50;99.90;;;1.83;100.00;101829.91;4157328;28;20516;-68
2022/01/06 06:17:27;;;;;;;8.35;5.60;;;2.40;99.90;;;2.04;100.00;101822.81;4159268;28;20088;-68
2022/01/06 06:19:28;;;;;;;9.93;5.72;;;2.40;99.90;;;2.07;100.00;101827.84;4163500;28;20057;-68
2022/01/06 06:21:29;;;;;;;12.68;7.38;;;2.30;99.90;;;1.87;100.00;101833.19;4155493;28;20029;-68
2022/01/06 06:23:30;;;;;;;11.93;5.60;;;2.30;99.90;;;1.52;100.00;101827.09;4155721;28;20033;-68
2022/01/06 06:25:31;;;;;;;11.60;6.65;;;2.30;99.90;;;1.74;100.00;101838.13;4160248;28;20550;-68
2022/01/06 06:27:32;;;;;;;11.40;6.75;;;2.30;99.90;;;1.72;100.00;101832.19;4156120;28;20042;-68
2022/01/06 06:29:33;;;;;;;11.88;5.68;;;2.20;99.90;;;1.70;100.00;101823.63;4165625;28;20057;-68
2022/01/06 06:31:34;;;;;;;11.70;6.68;;;2.20;99.90;;;1.74;100.00;101835.53;4164132;28;20038;-68
2022/01/06 06:33:35;;;;;;;12.43;7.18;;;2.10;99.90;;;1.72;100.00;101829.56;4159903;28;20055;-68
2022/01/06 06:35:36;;;;;;;12.38;6.85;;;2.10;99.90;;;1.68;100.00;101839.28;4168279;28;20087;-68
2022/01/06 06:37:37;;;;;;;8.15;6.57;;;2.20;99.90;;;1.79;100.00;101838.78;4152728;28;20113;-68
2022/01/06 06:39:38;;;;;;;9.40;5.82;;;2.10;99.90;;;1.82;100.00;101845.59;4150998;28;20038;-68
2022/01/06 06:41:39;;;;;;;10.68;6.55;;;2.10;99.90;;;1.88;100.00;101843.50;4150985;28;20092;-68
2022/01/06 06:43:40;;;;;;;9.40;6.93;;;2.10;99.90;;;1.82;100.00;101838.63;4150742;28;20034;-68
2022/01/06 06:45:42;;;;;;;10.55;6.97;;;2.20;99.90;;;1.69;100.00;101840.13;4165636;28;20032;-68
2022/01/06 06:47:43;;;;;;;17.52;8.45;;;2.20;99.90;;;1.64;100.00;101842.09;4162030;28;20444;-68
2022/01/06 06:49:44;;;;;;;12.35;6.88;;;2.10;99.90;;;1.76;100.00;101853.69;4156512;28;20083;-68
2022/01/06 06:51:45;;;;;;;13.30;7.63;;;2.20;99.90;;;1.77;100.00;101848.41;4168378;28;20025;-68
2022/01/06 06:53:46;;;;;;;14.20;8.82;;;2.20;99.90;;;1.65;100.00;101851.56;4168206;28;20033;-68
2022/01/06 06:55:47;;;;;;;9.75;6.88;;;2.10;99.90;;;1.51;100.00;101851.38;4174105;28;20041;-68
2022/01/06 06:57:48;;;;;;;12.15;7.55;;;2.10;99.90;;;1.66;100.00;101853.28;4152922;28;20029;-68
2022/01/06 06:59:49;;;;;;;16.05;8.88;;;2.10;99.90;;;1.73;100.00;101854.69;4150562;28;20172;-68
2022/01/06 07:01:50;;;;;;;11.05;7.75;;;2.10;99.90;;;1.66;100.00;101856.72;4168021;28;20030;-68
2022/01/06 07:03:51;;;;;;;11.10;7.63;;;2.10;99.90;;;1.65;100.00;101849.81;4151151;28;20088;-68
2022/01/06 07:05:52;;;;;;;13.15;7.47;;;2.00;99.90;;;1.79;100.00;101870.00;4156893;28;20029;-68
2022/01/06 07:07:53;;;;;;;11.52;7.47;;;2.10;99.90;;;1.71;100.00;101856.50;4157673;28;20479;-68
2022/01/06 07:09:54;;;;;;;13.52;7.63;;;2.10;99.90;;;1.59;100.00;101857.06;4164159;28;20063;-68
2022/01/06 07:11:55;;;;;;;14.20;8.60;;;2.00;99.90;;;1.46;100.00;101855.97;4151036;28;20033;-68
2022/01/06 07:13:56;;;;;;;15.35;8.02;;;2.00;99.90;;;1.48;100.00;101861.94;4157188;28;20061;-68
2022/01/06 07:15:56;;;;;;;11.52;8.43;;;2.00;99.90;;;1.56;100.00;101852.00;4157785;28;20482;-68
2022/01/06 07:17:57;;;;;;;10.32;8.50;;;1.90;99.90;;;1.51;100.00;101853.97;4150071;28;20033;-68
2022/01/06 07:19:58;;;;;;;12.23;9.60;;;1.90;99.90;;;1.52;100.00;101856.50;4166507;28;20057;-68
2022/01/06 07:21:59;;;;;;;13.30;8.07;;;1.90;99.90;;;1.46;100.00;101850.75;4173130;28;20028;-68
2022/01/06 07:24:00;;;;;;;12.68;8.70;;;1.90;99.90;;;1.42;100.00;101849.22;4163662;28;20030;-68
2022/01/06 07:26:01;;;;;;;10.07;7.63;;;1.80;99.90;;;1.41;100.00;101857.91;4161683;28;20022;-68
2022/01/06 07:28:02;;;;;;;12.95;7.43;;;1.90;99.90;;;1.48;100.00;101854.13;4166619;28;20033;-68
2022/01/06 07:30:05;;;;;;;13.23;8.32;;;1.90;99.90;;;1.54;100.00;101853.84;4159608;28;20045;-68
2022/01/06 07:32:06;;;;;;;11.70;7.88;;;1.90;99.90;;;1.46;100.00;101843.81;4158628;28;20501;-69
2022/01/06 07:34:07;;;;;;;8.80;6.80;;;1.90;99.90;;;1.45;100.00;101843.88;4165979;28;20025;-68
2022/01/06 07:36:08;;;;;;;10.73;7.10;;;1.80;99.90;;;1.43;100.00;101843.09;4152230;28;20041;-68
2022/01/06 07:38:09;;;;;;;12.07;6.43;;;1.60;99.90;;;1.49;100.00;101858.41;4156024;28;20033;-68
2022/01/06 07:40:12;;;;;;;11.38;6.45;;;1.80;99.90;;;1.35;100.00;101858.19;4167458;28;20037;-68
2022/01/06 07:42:13;;;;;;;11.25;6.70;;;1.80;99.90;;;1.33;100.00;101854.81;4154349;28;20060;-68
2022/01/06 07:44:14;;;;;;;11.48;6.53;;;2.80;99.90;;;1.40;100.00;101853.66;4165169;28;20083;-69
2022/01/06 07:46:15;;;;;;;7.55;5.50;;;1.70;99.90;;;1.42;100.00;101857.84;4166194;28;20104;-68
2022/01/06 07:48:19;;;;;;;9.55;6.38;;;1.80;99.90;;;1.33;100.00;101855.69;4161577;28;20034;-68
2022/01/06 07:50:28;;;;;;;8.45;6.35;;;1.80;99.90;;;1.33;100.00;101866.06;4160753;28;20025;-69
2022/01/06 07:52:29;;;;;;;9.85;5.75;;;1.30;99.90;;;1.29;100.00;101868.88;4168276;28;20463;-69
2022/01/06 07:54:30;;;;;;;10.07;5.13;;;1.80;99.90;;;1.33;100.00;101886.03;4175145;28;20034;-69
2022/01/06 07:56:31;;;;;;;8.40;5.43;;;1.60;99.90;;;1.31;100.00;101882.66;4166330;28;20096;-69
2022/01/06 07:58:32;;;;;;;11.55;5.63;;;1.80;99.90;;;1.31;100.00;101887.84;4141871;28;20424;-69
2022/01/06 08:00:33;;;;;;;10.93;5.78;;;1.80;99.90;;;1.24;100.00;101879.47;4165943;28;20021;-69
2022/01/06 08:02:34;;;;;;;10.23;6.40;;;1.80;99.90;;;1.36;100.00;101891.94;4167371;28;20029;-69
2022/01/06 08:04:35;;;;;;;7.40;5.30;;;1.90;99.90;;;1.55;100.00;101897.13;4167156;28;20095;-69
2022/01/06 08:06:36;;;;;;;13.02;6.32;;;1.80;99.90;;;1.65;100.00;101899.22;4154194;28;20041;-69
2022/01/06 08:08:37;;;;;;;8.40;5.13;;;1.90;99.90;;;1.65;100.00;101899.22;4164558;28;20056;-68
2022/01/06 08:10:38;;;;;;;7.80;4.85;;;2.00;99.90;;;1.49;100.00;101900.03;4166177;28;20037;-69
2022/01/06 08:12:39;;;;;;;12.57;5.55;;;2.10;99.90;;;1.59;100.00;101903.88;4167289;28;20041;-68
2022/01/06 08:14:40;;;;;;;9.30;5.70;;;2.20;99.90;;;1.62;100.00;101911.53;4167188;28;20497;-68
2022/01/06 08:16:41;;;;;;;7.30;5.38;;;2.20;99.90;;;1.49;100.00;101902.63;4167595;28;20030;-69
2022/01/06 08:18:42;;;;;;;9.05;5.25;;;2.20;99.90;;;1.65;100.00;101908.78;4153609;28;20040;-69
2022/01/06 08:20:43;;;;;;;10.10;5.80;;;2.20;99.90;;;1.78;100.00;101899.50;4163743;28;20041;-69
2022/01/06 08:22:44;;;;;;;11.57;6.25;;;2.20;99.90;;;1.77;100.00;101897.81;4163783;28;20404;-69
2022/01/06 08:24:45;;;;;;;11.98;7.30;;;2.30;99.90;;;1.61;100.00;101900.28;4150613;28;20033;-69
2022/01/06 08:26:46;;;;;;;11.02;7.15;;;2.30;99.90;;;1.56;100.00;101896.22;4154342;28;20029;-69
2022/01/06 08:28:47;;;;;;;9.88;5.53;;;2.20;99.90;;;1.60;100.00;101900.38;4166636;28;20033;-69
2022/01/06 08:30:48;;;;;;;9.65;6.15;;;2.20;99.90;;;1.69;100.00;101910.34;4154398;28;20034;-69
2022/01/06 08:32:49;;;;;;;9.55;5.63;;;2.20;99.90;;;1.68;100.00;101906.91;4150476;28;20046;-70
2022/01/06 08:34:50;;;;;;;13.68;6.78;;;2.20;99.90;;;1.76;100.00;101910.91;4149888;28;20040;-69
2022/01/06 08:36:53;;;;;;;7.70;5.93;;;2.30;99.90;;;1.74;100.00;101903.16;4148568;28;20555;-70
2022/01/06 08:38:54;;;;;;;9.75;5.00;;;2.20;99.90;;;1.72;100.00;101910.19;4149096;28;20033;-69